createdAt,value
2022-11-20T08:01:28.492Z,10.00
2022-11-20T08:02:28.433Z,19.20
2022-11-20T08:03:28.371Z,21.10
2022-11-20T08:04:28.319Z,26.00
2022-11-20T08:05:28.563Z,28.30
2022-11-20T08:06:28.207Z,25.40
2022-11-20T08:07:28.221Z,29.10
2022-11-20T08:08:28.098Z,24.30
2022-11-20T08:09:28.045Z,23.60
2022-11-20T08:10:27.990Z,26.00
2022-11-20T08:11:27.944Z,26.20
2022-11-20T08:12:27.886Z,24.40
2022-11-20T08:13:27.836Z,24.30
2022-11-20T08:14:27.791Z,26.10
2022-11-20T08:15:27.729Z,24.70
2022-11-20T08:16:27.677Z,23.70
2022-11-20T08:17:27.624Z,22.10
2022-11-20T08:18:32.417Z,24.00
2022-11-20T08:19:27.524Z,23.20
2022-11-20T08:20:27.474Z,25.40
2022-11-20T08:21:27.420Z,22.30
2022-11-20T08:22:27.374Z,24.50
2022-11-20T08:23:27.321Z,26.10
2022-11-20T08:24:27.275Z,28.00
2022-11-20T08:25:27.219Z,25.60
2022-11-20T08:26:27.176Z,27.20
2022-11-20T08:27:27.116Z,27.50
2022-11-20T08:28:27.071Z,26.20
2022-11-20T08:29:27.019Z,28.40
2022-11-20T08:30:26.973Z,29.10
2022-11-20T08:31:26.917Z,30.90
2022-11-20T08:32:26.869Z,27.60
2022-11-20T08:33:26.813Z,28.60
2022-11-20T08:34:26.765Z,28.80
2022-11-20T08:35:26.713Z,29.70
2022-11-20T08:36:26.666Z,27.70
2022-11-20T08:37:26.615Z,32.10
2022-11-20T08:38:26.568Z,31.80
2022-11-20T08:39:26.513Z,29.70
2022-11-20T08:40:26.465Z,30.70
2022-11-20T08:41:26.416Z,28.40
2022-11-20T08:42:26.365Z,31.20
2022-11-20T08:43:26.314Z,29.20
2022-11-20T08:44:26.267Z,29.30
2022-11-20T08:45:30.939Z,31.70
2022-11-20T08:46:26.169Z,28.60
2022-11-20T08:47:26.117Z,28.10
2022-11-20T08:48:26.069Z,30.00
2022-11-20T08:49:26.016Z,27.60
2022-11-20T08:50:25.968Z,27.90
2022-11-20T08:51:25.917Z,30.80
2022-11-20T08:52:25.870Z,28.70
2022-11-20T08:53:25.819Z,28.40
2022-11-20T12:13:32.209Z,11.20
2022-11-20T12:14:32.154Z,18.10
2022-11-20T12:15:32.113Z,17.50
2022-11-20T12:16:32.049Z,17.30
2022-11-20T12:17:31.993Z,17.90
2022-11-20T12:18:31.945Z,16.40
2022-11-20T12:19:31.893Z,16.70
2022-11-20T12:20:31.841Z,17.40
2022-11-20T12:21:31.790Z,15.70
2022-11-20T12:22:31.742Z,15.50
2022-11-20T12:23:31.688Z,15.50
2022-11-20T12:24:31.641Z,17.40
2022-11-20T12:25:31.593Z,16.10
2022-11-20T12:26:31.542Z,17.60
2022-11-20T12:27:31.492Z,17.10
2022-11-20T12:28:31.498Z,15.00
2022-11-20T12:29:31.397Z,16.80
2022-11-20T12:30:31.365Z,15.00
2022-11-20T12:31:31.299Z,15.40
2022-11-20T12:32:31.252Z,17.40
2022-11-20T12:33:31.201Z,18.00
2022-11-20T12:34:31.156Z,16.30
2022-11-20T12:35:31.104Z,16.80
2022-11-20T12:36:31.093Z,16.30
2022-11-20T12:37:31.012Z,17.70
2022-11-20T12:38:30.985Z,16.90
2022-11-20T12:39:30.914Z,17.90
2022-11-20T12:40:30.916Z,16.80
2022-11-20T12:41:30.818Z,16.90
2022-11-20T12:42:30.773Z,15.90
2022-11-20T12:43:30.725Z,17.00
2022-11-20T12:44:30.718Z,21.90
2022-11-20T12:45:30.630Z,18.40
2022-11-20T12:46:30.613Z,18.00
2022-11-20T12:47:30.532Z,28.80
2022-11-20T12:48:30.488Z,20.50
2022-11-20T12:49:30.452Z,18.10
2022-11-20T12:50:30.614Z,17.50
2022-11-20T12:51:30.343Z,18.80
2022-11-20T12:52:30.301Z,20.00
2022-11-20T12:53:30.349Z,17.00
2022-11-20T12:54:30.244Z,15.40
2022-11-20T12:55:30.154Z,15.60
2022-11-20T12:56:30.118Z,16.30
2022-11-20T12:57:30.133Z,16.00
2022-11-20T12:58:30.013Z,16.10
2022-11-20T12:59:29.971Z,17.30
2022-11-20T13:00:29.921Z,16.90
2022-11-20T13:01:29.932Z,16.90
2022-11-20T13:02:29.829Z,16.50
2022-11-20T13:03:29.778Z,17.80
2022-11-20T13:04:29.734Z,15.70
2022-11-20T13:05:29.733Z,16.70
2022-11-20T13:06:29.637Z,16.70
2022-11-20T13:07:29.627Z,17.00
2022-11-20T13:08:29.584Z,16.70
2022-11-20T13:09:29.495Z,15.60
2022-11-20T13:10:29.450Z,17.80
2022-11-20T13:11:29.400Z,16.80
2022-11-20T13:12:29.356Z,16.50
2022-11-20T13:13:29.307Z,18.40
2022-11-20T13:14:29.263Z,16.40
2022-11-20T13:15:29.213Z,16.00
2022-11-20T13:16:29.169Z,17.80
2022-11-20T13:17:29.123Z,15.10
2022-11-20T13:18:29.076Z,18.60
2022-11-20T13:19:29.026Z,15.30
2022-11-20T13:20:28.986Z,16.60
2022-11-20T13:21:28.936Z,16.20
2022-11-20T13:22:28.885Z,17.10
2022-11-20T13:23:28.845Z,16.30
2022-11-20T13:24:28.849Z,18.50
2022-11-20T13:25:28.742Z,17.30
2022-11-20T13:26:28.699Z,16.40
2022-11-20T13:27:28.650Z,16.00
2022-11-20T13:28:28.604Z,15.60
2022-11-20T13:29:28.557Z,17.70
2022-11-20T13:30:28.511Z,18.10
2022-11-20T13:31:28.467Z,16.30
2022-11-20T13:32:28.421Z,19.90
2022-11-20T13:33:28.374Z,16.90
2022-11-20T13:34:28.323Z,18.10
2022-11-20T13:35:28.278Z,18.30
2022-11-20T13:36:28.232Z,18.50
2022-11-20T13:37:28.188Z,17.60
2022-11-20T13:38:32.743Z,17.70
2022-11-20T13:39:28.088Z,19.40
2022-11-20T13:40:28.043Z,17.80
2022-11-20T13:41:27.996Z,17.10
2022-11-20T13:42:27.951Z,17.40
2022-11-20T13:43:27.899Z,18.40
2022-11-20T13:44:27.854Z,18.40
2022-11-20T13:45:27.811Z,20.10
2022-11-20T13:46:27.760Z,18.70
2022-11-20T13:47:27.718Z,18.10
2022-11-20T13:48:27.669Z,19.60
2022-11-20T13:49:27.621Z,19.00
2022-11-20T13:50:27.574Z,16.90
2022-11-20T13:51:27.528Z,20.00
2022-11-20T13:52:27.480Z,19.10
2022-11-20T13:53:27.432Z,20.60
2022-11-20T13:54:27.387Z,18.80
2022-11-20T13:55:27.342Z,18.20
2022-11-20T13:56:27.293Z,20.80
2022-11-20T13:57:27.249Z,22.50
2022-11-20T13:58:27.203Z,20.60
2022-11-20T13:59:27.149Z,19.50
2022-11-20T14:00:27.165Z,20.90
2022-11-20T14:01:27.247Z,18.30
2022-11-20T14:02:27.011Z,19.50
2022-11-20T14:03:59.102Z,24.00
2022-11-20T14:04:26.916Z,19.80
2022-11-20T14:05:26.872Z,20.70
2022-11-20T14:07:10.304Z,21.60
2022-11-20T14:08:10.154Z,20.40
2022-11-20T14:09:10.107Z,22.40
2022-11-20T14:10:10.060Z,21.80
2022-11-20T14:11:10.012Z,23.30
2022-11-20T14:12:09.968Z,21.00
2022-11-20T14:13:09.919Z,21.30
2022-11-20T14:14:10.277Z,20.10
2022-11-20T14:15:09.825Z,19.20
2022-11-20T14:16:09.778Z,23.70
2022-11-20T14:17:09.732Z,27.10
2022-11-20T14:18:09.685Z,22.20
2022-11-20T14:19:09.639Z,22.20
2022-11-20T14:20:09.591Z,21.60
2022-11-20T14:21:09.563Z,21.50
2022-11-20T14:22:09.555Z,21.90
2022-11-20T14:23:09.463Z,23.40
2022-11-20T14:24:09.423Z,23.20
2022-11-20T14:25:09.354Z,21.30
2022-11-20T14:26:09.308Z,24.90
2022-11-20T14:27:09.260Z,23.70
2022-11-20T14:28:09.212Z,20.80
2022-11-20T14:29:09.166Z,24.40
2022-11-20T14:30:09.120Z,22.70
2022-11-20T14:31:09.072Z,24.50
2022-11-20T14:32:09.026Z,24.40
2022-11-20T14:33:08.981Z,22.70
2022-11-20T14:34:08.931Z,23.00
2022-11-20T14:35:08.886Z,22.10
2022-11-20T14:36:08.839Z,23.60
2022-11-20T14:37:11.441Z,26.90
2022-11-20T14:38:08.742Z,25.80
2022-11-20T14:39:08.695Z,25.20
2022-11-20T14:40:08.648Z,23.30
2022-11-20T14:41:08.636Z,26.60
2022-11-20T14:42:08.556Z,27.60
2022-11-20T14:43:08.515Z,25.60
2022-11-20T14:44:08.471Z,29.00
2022-11-20T14:45:08.411Z,26.50
2022-11-20T14:46:08.406Z,26.00
2022-11-20T14:47:08.321Z,26.70
2022-11-20T14:48:08.274Z,28.80
2022-11-20T14:49:08.222Z,29.30
2022-11-20T14:50:10.110Z,31.00
2022-11-20T14:51:08.132Z,29.50
2022-11-20T14:52:08.082Z,28.60
2022-11-20T14:53:08.033Z,29.60
2022-11-20T14:54:07.991Z,29.90
2022-11-20T14:55:07.940Z,27.90
2022-11-20T14:56:07.893Z,28.30
2022-11-20T14:57:07.846Z,30.10
2022-11-20T14:58:08.123Z,27.80
2022-11-20T14:59:07.750Z,29.80
2022-11-20T15:00:07.725Z,31.20
2022-11-20T15:01:07.656Z,27.40
2022-11-20T15:02:07.611Z,28.40
2022-11-20T15:03:07.562Z,26.70
2022-11-20T15:04:07.588Z,30.40
2022-11-20T15:05:07.489Z,25.60
2022-11-20T15:06:07.422Z,29.40
2022-11-20T15:07:07.400Z,27.10
2022-11-20T15:08:07.330Z,30.60
2022-11-20T15:09:07.290Z,29.70
2022-11-20T15:10:07.234Z,30.50
2022-11-20T15:11:07.185Z,27.10
2022-11-20T15:12:07.139Z,29.50
2022-11-20T15:13:11.425Z,29.00
2022-11-20T15:14:07.053Z,29.70
2022-11-20T15:15:06.995Z,27.40
2022-11-20T15:16:06.952Z,30.50
2022-11-20T15:17:06.900Z,29.00
2022-11-20T15:18:06.856Z,29.00
2022-11-20T15:19:06.808Z,25.80
2022-11-20T15:20:06.760Z,26.60
2022-11-20T15:22:06.668Z,27.30
2022-11-20T15:23:06.619Z,28.20
2022-11-20T15:24:06.578Z,28.80
2022-11-20T15:25:06.586Z,29.50
2022-11-20T15:26:06.475Z,29.20
2022-11-20T15:27:06.434Z,29.00
2022-11-20T15:28:06.379Z,32.00
2022-11-20T15:29:06.338Z,34.40
2022-11-20T15:30:06.289Z,28.60
2022-11-20T15:31:06.241Z,29.40
2022-11-20T15:32:11.944Z,29.90
2022-11-20T15:33:06.144Z,31.40
2022-11-20T15:34:06.097Z,26.90
2022-11-20T15:35:06.052Z,27.10
2022-11-20T15:36:06.000Z,27.60
2022-11-20T15:37:05.959Z,30.60
2022-11-20T15:38:05.915Z,30.20
2022-11-20T15:39:05.866Z,27.70
2022-11-20T15:40:05.813Z,28.30
2022-11-20T15:42:05.719Z,27.10
2022-11-20T15:43:11.373Z,29.30
2022-11-20T15:44:05.623Z,29.30
2022-11-20T15:45:05.577Z,27.60
2022-11-20T15:46:05.529Z,27.10
2022-11-20T15:47:05.482Z,28.40
2022-11-20T15:48:05.437Z,25.10
2022-11-20T15:49:05.385Z,28.50
2022-11-20T15:50:05.340Z,29.30
2022-11-20T15:51:05.293Z,26.90
2022-11-20T15:52:05.249Z,26.70
2022-11-20T15:53:05.195Z,29.10
2022-11-20T15:54:05.148Z,28.60
2022-11-20T15:55:09.492Z,26.40
2022-11-20T15:56:05.053Z,25.30
2022-11-20T15:57:05.008Z,26.40
2022-11-20T15:58:04.959Z,26.60
2022-11-20T15:59:04.914Z,24.60
2022-11-20T16:00:04.887Z,26.70
2022-11-20T16:01:04.858Z,27.30
2022-11-20T16:02:04.776Z,27.40
2022-11-20T16:03:04.725Z,25.20
2022-11-20T16:04:04.677Z,27.50
2022-11-20T16:05:04.674Z,24.70
2022-11-20T16:06:04.579Z,25.00
2022-11-20T16:07:04.606Z,25.40
2022-11-20T16:08:09.967Z,25.00
2022-11-20T16:09:04.436Z,27.10
2022-11-20T16:10:04.390Z,27.70
2022-11-20T16:11:04.340Z,25.00
2022-11-20T16:12:04.296Z,27.50
2022-11-20T16:13:04.250Z,26.40
2022-11-20T16:14:04.201Z,26.40
2022-11-20T16:15:05.587Z,28.20
2022-11-20T16:16:04.103Z,31.00
2022-11-20T16:17:04.058Z,29.20
2022-11-20T16:18:04.007Z,28.00
2022-11-20T16:19:03.958Z,26.20
2022-11-20T16:20:03.911Z,29.60
2022-11-20T16:21:03.863Z,26.50
2022-11-20T16:22:03.819Z,27.10
2022-11-20T16:23:03.772Z,26.60
2022-11-20T16:24:03.729Z,28.10
2022-11-20T16:25:03.676Z,27.80
2022-11-20T16:26:03.640Z,29.20
2022-11-20T16:27:03.580Z,27.30
2022-11-20T16:28:03.534Z,27.60
2022-11-20T16:29:03.483Z,27.80
2022-11-20T16:30:03.438Z,27.10
2022-11-20T16:31:03.387Z,28.00
2022-11-20T16:32:03.343Z,28.30
2022-11-20T16:33:03.383Z,28.20
2022-11-20T16:34:07.156Z,28.40
2022-11-20T16:35:03.294Z,31.40
2022-11-20T16:36:03.156Z,31.20
2022-11-20T16:37:03.104Z,31.20
2022-11-20T16:38:03.071Z,28.70
2022-11-20T16:39:03.045Z,31.00
2022-11-20T16:40:02.959Z,29.90
2022-11-20T16:41:02.913Z,27.90
2022-11-20T16:42:02.869Z,29.20
2022-11-20T16:43:02.847Z,30.50
2022-11-20T16:44:02.909Z,28.90
2022-11-20T16:45:02.722Z,27.90
2022-11-20T16:46:02.677Z,27.90
2022-11-20T16:47:02.625Z,30.40
2022-11-20T16:48:02.585Z,31.70
2022-11-20T16:49:02.537Z,33.20
2022-11-20T16:50:02.482Z,30.20
2022-11-20T16:51:02.434Z,31.80
2022-11-20T16:52:02.391Z,33.10
2022-11-20T16:53:02.339Z,31.10
2022-11-20T16:54:02.299Z,34.00
2022-11-20T16:55:02.247Z,32.40
2022-11-20T16:56:02.197Z,30.70
2022-11-20T16:57:02.158Z,29.00
2022-11-20T16:58:02.103Z,34.50
2022-11-20T16:59:02.064Z,35.00
2022-11-20T17:00:02.668Z,35.50
2022-11-20T17:01:01.992Z,32.90
2022-11-20T17:02:01.919Z,32.10
2022-11-20T17:03:01.869Z,34.40
2022-11-20T17:04:01.814Z,35.50
2022-11-20T17:05:01.769Z,34.90
2022-11-20T17:06:01.724Z,35.50
2022-11-20T17:07:07.641Z,32.30
2022-11-20T17:08:01.627Z,38.90
2022-11-20T17:09:01.573Z,38.80
2022-11-20T17:10:01.538Z,34.30
2022-11-20T17:11:01.482Z,33.70
2022-11-20T17:12:01.435Z,34.60
2022-11-20T17:13:01.585Z,37.10
2022-11-20T17:14:01.341Z,36.60
2022-11-20T17:15:01.300Z,34.10
2022-11-20T17:16:01.241Z,35.50
2022-11-20T17:17:01.193Z,39.20
2022-11-20T17:18:01.147Z,39.70
2022-11-20T17:19:03.228Z,40.00
2022-11-20T17:20:01.051Z,42.00
2022-11-20T17:21:01.003Z,39.80
2022-11-20T17:22:00.956Z,38.90
2022-11-20T17:23:00.918Z,37.90
2022-11-20T17:24:00.861Z,41.30
2022-11-20T17:25:00.816Z,40.30
2022-11-20T17:26:00.765Z,39.50
2022-11-20T17:28:00.677Z,43.90
2022-11-20T17:29:00.628Z,37.70
2022-11-20T17:30:00.642Z,42.90
2022-11-20T17:31:00.527Z,36.20
2022-11-20T17:32:00.476Z,39.50
2022-11-20T17:33:00.433Z,36.60
2022-11-20T17:34:00.459Z,38.50
2022-11-20T17:35:00.335Z,40.30
2022-11-20T17:36:00.292Z,40.40
2022-11-20T17:37:00.241Z,39.70
2022-11-20T17:38:00.191Z,41.80
2022-11-20T17:39:00.147Z,38.00
2022-11-20T17:40:00.139Z,43.00
2022-11-20T17:42:00.001Z,35.30
2022-11-20T17:42:59.956Z,34.80
2022-11-20T17:43:59.906Z,30.40
2022-11-20T17:44:59.857Z,34.20
2022-11-20T17:45:59.811Z,31.90
2022-11-20T17:46:59.766Z,28.30
2022-11-20T17:47:59.722Z,28.10
2022-11-20T17:48:59.678Z,28.40
2022-11-20T17:49:59.621Z,31.80
2022-11-20T17:50:59.577Z,27.90
2022-11-20T17:51:59.537Z,31.80
2022-11-20T17:52:59.476Z,32.30
2022-11-20T17:53:59.468Z,33.90
2022-11-20T17:55:59.333Z,32.90
2022-11-20T17:56:59.289Z,39.10
2022-11-20T17:57:59.242Z,33.60
2022-11-20T17:58:59.193Z,37.50
2022-11-20T17:59:59.145Z,34.50
2022-11-20T18:00:59.097Z,35.20
2022-11-20T18:02:03.449Z,36.80
2022-11-20T18:02:59.001Z,36.30
2022-11-20T18:03:58.952Z,39.00
2022-11-20T18:04:58.907Z,36.20
2022-11-20T18:05:58.857Z,37.70
2022-11-20T18:06:58.867Z,39.70
2022-11-20T18:07:58.763Z,36.20
2022-11-20T18:08:58.717Z,32.20
2022-11-20T18:09:58.668Z,39.60
2022-11-20T18:10:58.625Z,34.10
2022-11-20T18:11:58.579Z,36.80
2022-11-20T18:12:58.529Z,36.50
2022-11-20T18:13:58.477Z,35.60
2022-11-20T18:14:58.432Z,36.10
2022-11-20T18:15:58.384Z,33.80
2022-11-20T18:16:58.337Z,36.80
2022-11-20T18:17:58.316Z,36.30
2022-11-20T18:18:58.266Z,33.30
2022-11-20T18:20:27.242Z,32.50
2022-11-20T18:20:58.158Z,28.90
2022-11-20T18:21:58.099Z,26.40
2022-11-20T18:22:58.056Z,29.40
2022-11-20T18:23:58.008Z,19.00
2022-11-20T18:24:57.957Z,17.40
2022-11-20T18:25:57.912Z,14.50
2022-11-20T18:26:57.862Z,14.00
2022-11-20T18:27:57.815Z,14.10
2022-11-20T18:29:57.720Z,12.30
2022-11-20T18:30:57.680Z,10.70
2022-11-20T18:31:57.633Z,10.60
2022-11-20T18:32:57.578Z,11.40
2022-11-20T18:33:57.526Z,14.70
2022-11-20T18:34:57.486Z,10.70
2022-11-20T18:35:57.439Z,9.40
2022-11-20T18:36:57.390Z,11.20
2022-11-20T18:37:57.365Z,9.30
2022-11-20T18:38:57.332Z,10.90
2022-11-20T18:39:57.308Z,8.70
2022-11-20T18:41:01.987Z,9.20
2022-11-20T18:41:57.154Z,7.80
2022-11-20T18:42:57.106Z,7.90
2022-11-20T18:43:57.151Z,10.50
2022-11-20T18:44:57.016Z,7.20
2022-11-20T18:46:56.912Z,8.90
2022-11-20T18:47:56.869Z,7.20
2022-11-20T18:48:56.824Z,6.80
2022-11-20T18:49:56.773Z,10.10
2022-11-20T18:50:56.739Z,7.70
2022-11-20T18:51:56.677Z,7.40
2022-11-20T18:52:56.631Z,8.00
2022-11-20T18:53:56.587Z,8.00
2022-11-20T18:54:56.534Z,7.20
2022-11-20T18:55:56.488Z,8.50
2022-11-20T18:56:56.439Z,6.80
2022-11-20T18:57:56.395Z,7.00
2022-11-20T18:59:00.267Z,8.40
2022-11-20T18:59:56.303Z,8.90
2022-11-20T19:00:56.255Z,7.40
2022-11-20T19:01:56.269Z,8.00
2022-11-20T19:02:56.156Z,7.70
2022-11-20T19:03:56.120Z,7.00
2022-11-20T19:04:56.061Z,7.50
2022-11-20T19:05:56.019Z,7.20
2022-11-20T19:06:55.974Z,8.70
2022-11-20T19:07:55.921Z,7.40
2022-11-20T19:08:55.873Z,7.00
2022-11-20T19:09:59.638Z,11.00
2022-11-20T19:10:55.779Z,9.60
2022-11-20T19:11:55.742Z,8.30
2022-11-20T19:12:55.685Z,9.10
2022-11-20T19:13:55.640Z,9.90
2022-11-20T19:14:55.589Z,9.10
2022-11-20T19:15:55.548Z,7.90
2022-11-20T19:16:55.495Z,8.50
2022-11-20T19:17:55.450Z,9.00
2022-11-20T19:18:57.251Z,10.40
2022-11-20T19:19:55.405Z,10.00
2022-11-20T19:20:55.305Z,9.30
2022-11-20T19:21:55.261Z,10.40
2022-11-20T19:22:55.216Z,9.40
2022-11-20T19:23:55.171Z,11.50
2022-11-20T19:25:55.077Z,9.40
2022-11-20T19:26:55.037Z,11.40
2022-11-20T19:27:54.984Z,11.30
2022-11-20T19:28:54.935Z,11.90
2022-11-20T19:29:54.885Z,16.20
2022-11-20T19:30:54.838Z,11.10
2022-11-20T19:31:54.789Z,13.30
2022-11-20T19:32:54.746Z,11.90
2022-11-20T19:33:54.700Z,11.80
2022-11-20T19:34:54.648Z,11.80
2022-11-20T19:35:54.600Z,13.70
2022-11-20T19:36:54.556Z,17.10
2022-11-20T19:37:54.509Z,16.00
2022-11-20T19:38:54.461Z,14.50
2022-11-20T19:39:54.417Z,15.20
2022-11-20T19:40:54.368Z,12.30
2022-11-20T19:41:54.318Z,13.10
2022-11-20T19:42:54.276Z,16.00
2022-11-20T19:43:54.226Z,12.00
2022-11-20T19:44:54.181Z,14.00
2022-11-20T19:45:54.130Z,14.60
2022-11-20T19:46:54.092Z,14.20
2022-11-20T19:48:07.829Z,13.70
2022-11-20T19:48:53.993Z,15.70
2022-11-20T19:49:53.943Z,15.30
2022-11-20T19:50:53.905Z,12.30
2022-11-20T19:51:53.853Z,14.90
2022-11-20T19:52:58.526Z,14.00
2022-11-20T19:53:53.762Z,14.00
2022-11-20T19:54:53.711Z,13.60
2022-11-20T19:55:53.663Z,12.90
2022-11-20T19:56:53.617Z,15.90
2022-11-20T19:57:53.567Z,13.20
2022-11-20T19:58:53.523Z,15.00
2022-11-20T19:59:53.474Z,13.80
2022-11-20T20:00:53.429Z,14.60
2022-11-20T20:01:53.444Z,16.60
2022-11-20T20:02:53.343Z,14.80
2022-11-20T20:03:53.290Z,15.20
2022-11-20T20:04:53.245Z,15.60
2022-11-20T20:05:53.195Z,17.20
2022-11-20T20:06:53.153Z,18.40
2022-11-20T20:07:53.103Z,16.40
2022-11-20T20:08:53.056Z,16.90
2022-11-20T20:09:53.016Z,19.10
2022-11-20T20:10:56.738Z,19.40
2022-11-20T20:11:52.913Z,18.60
2022-11-20T20:12:52.874Z,18.90
2022-11-20T20:13:52.820Z,17.90
2022-11-20T20:14:52.781Z,19.20
2022-11-20T20:15:52.729Z,19.30
2022-11-20T20:16:52.685Z,19.90
2022-11-20T20:17:52.633Z,20.00
2022-11-20T20:18:52.591Z,19.90
2022-11-20T20:19:52.540Z,19.50
2022-11-20T20:20:52.494Z,21.70
2022-11-20T20:21:52.448Z,22.80
2022-11-20T20:22:52.403Z,25.10
2022-11-20T20:23:52.353Z,27.00
2022-11-20T20:24:52.312Z,23.10
2022-11-20T20:25:52.260Z,25.80
2022-11-20T20:26:55.557Z,24.40
2022-11-20T20:27:52.174Z,23.20
2022-11-20T20:28:52.122Z,23.00
2022-11-20T20:29:52.076Z,25.10
2022-11-20T20:30:52.030Z,24.70
2022-11-20T20:31:51.982Z,26.30
2022-11-20T20:32:56.093Z,27.70
2022-11-20T20:33:51.889Z,26.30
2022-11-20T20:34:51.841Z,27.90
2022-11-20T20:35:51.801Z,29.00
2022-11-20T20:36:51.749Z,27.40
2022-11-20T20:37:51.702Z,25.10
2022-11-20T20:38:51.658Z,27.70
2022-11-20T20:39:51.606Z,25.30
2022-11-20T20:40:51.562Z,30.40
2022-11-20T20:41:51.514Z,26.70
2022-11-20T20:42:51.470Z,28.90
2022-11-20T20:43:51.421Z,31.30
2022-11-20T20:44:51.376Z,31.40
2022-11-20T20:45:51.326Z,30.80
2022-11-20T20:46:51.282Z,30.80
2022-11-20T20:47:51.239Z,30.70
2022-11-20T20:48:54.388Z,32.70
2022-11-20T20:49:51.137Z,32.30
2022-11-20T20:50:51.094Z,31.50
2022-11-20T20:51:51.045Z,34.20
2022-11-20T20:52:51.001Z,32.50
2022-11-20T20:53:50.953Z,34.10
2022-11-20T20:54:50.908Z,35.60
2022-11-20T20:55:50.861Z,38.60
2022-11-20T20:56:50.815Z,36.40
2022-11-20T20:57:50.765Z,37.00
2022-11-20T20:58:50.723Z,38.30
2022-11-20T20:59:50.671Z,34.20
2022-11-20T21:00:50.627Z,37.20
2022-11-20T21:01:50.620Z,34.70
2022-11-20T21:02:50.535Z,35.90
2022-11-20T21:03:50.496Z,36.40
2022-11-20T21:04:50.445Z,37.70
2022-11-20T21:05:50.394Z,36.40
2022-11-20T21:06:50.345Z,37.10
2022-11-20T21:07:50.299Z,35.50
2022-11-20T21:08:50.252Z,37.60
2022-11-20T21:09:50.209Z,37.80
2022-11-20T21:10:50.159Z,36.60
2022-11-20T21:11:50.115Z,35.70
2022-11-20T21:12:50.065Z,33.20
2022-11-20T21:13:50.016Z,37.10
2022-11-20T21:14:49.971Z,35.90
2022-11-20T21:15:49.923Z,35.60
2022-11-20T21:16:49.876Z,40.90
2022-11-20T21:17:49.832Z,38.70
2022-11-20T21:18:49.786Z,34.70
2022-11-20T21:19:49.738Z,37.90
2022-11-20T21:20:49.693Z,35.20
2022-11-20T21:21:49.645Z,40.00
2022-11-20T21:22:49.594Z,40.00
2022-11-20T21:23:49.545Z,35.90
2022-11-20T21:24:49.504Z,36.80
2022-11-20T21:25:49.458Z,35.50
